createdAt,value
2022-08-12T00:02:05.892Z,100603.63
2022-08-12T00:09:04.216Z,100604.09
2022-08-12T00:16:06.501Z,100594.44
2022-08-12T00:23:05.587Z,100601.69
2022-08-12T00:30:03.811Z,100594.34
2022-08-12T00:37:13.022Z,100570.34
2022-08-12T00:44:00.503Z,100605.56
2022-08-12T00:50:47.045Z,100543.38
2022-08-12T00:57:38.560Z,100609.91
2022-08-12T01:04:38.284Z,100573.34
2022-08-12T01:11:33.917Z,100618.22
2022-08-12T01:18:23.945Z,100616.31
2022-08-12T01:25:15.209Z,100621.63
2022-08-12T01:32:05.263Z,100614.91
2022-08-12T01:38:55.990Z,100637.13
2022-08-12T01:46:17.532Z,100620.75
2022-08-12T01:53:10.526Z,100623.53
2022-08-12T02:00:06.683Z,100570.97
2022-08-12T02:07:28.799Z,100613.13
2022-08-12T02:14:45.354Z,100627.31
2022-08-12T02:21:45.234Z,100579.16
2022-08-12T02:28:34.687Z,100516.59
2022-08-12T02:35:23.199Z,100616.03
2022-08-12T02:42:14.548Z,100617.25
2022-08-12T03:02:54.862Z,100622.31
2022-08-12T03:10:05.202Z,100642.06
2022-08-12T03:17:03.816Z,100631.28
2022-08-12T03:23:53.117Z,100628.13
2022-08-12T03:30:43.274Z,100627.75
2022-08-12T03:37:32.708Z,100639.44
2022-08-12T03:44:43.220Z,100640.28
2022-08-12T03:51:42.123Z,100645.50
2022-08-12T03:58:41.601Z,100655.16
2022-08-12T04:05:54.278Z,100558.34
2022-08-12T04:12:48.653Z,100670.06
2022-08-12T04:19:34.647Z,100671.69
2022-08-12T04:26:22.757Z,100620.63
2022-08-12T04:33:13.024Z,100676.13
2022-08-12T04:39:58.902Z,100621.81
2022-08-12T04:46:47.593Z,100675.66
2022-08-12T04:53:33.708Z,100677.28
2022-08-12T05:00:20.155Z,100680.50
2022-08-12T05:07:11.841Z,100686.09
2022-08-12T05:14:04.329Z,100663.16
2022-08-12T05:20:50.724Z,100692.53
2022-08-12T05:27:38.789Z,100693.38
2022-08-12T05:34:41.177Z,100710.69
2022-08-12T05:41:27.094Z,100709.09
2022-08-12T05:48:15.904Z,100711.50
2022-08-12T05:55:02.558Z,100717.53
2022-08-12T06:02:09.913Z,100718.72
2022-08-12T06:08:58.180Z,100719.13
2022-08-12T06:15:43.771Z,100735.63
2022-08-12T06:22:29.688Z,100730.41
2022-08-12T06:30:07.318Z,100727.56
2022-08-12T06:36:30.069Z,100720.69
2022-08-12T06:43:19.927Z,100727.88
2022-08-12T06:50:11.369Z,100695.63
2022-08-12T06:57:04.182Z,100727.00
2022-08-12T07:03:51.260Z,100726.94
2022-08-12T07:10:44.639Z,100737.38
2022-08-12T07:17:36.422Z,100634.41
2022-08-12T07:24:22.453Z,100678.22
2022-08-12T07:31:12.437Z,100723.16
2022-08-12T07:38:03.954Z,100726.69
2022-08-12T07:44:51.591Z,100727.38
2022-08-12T07:51:40.680Z,100723.59
2022-08-12T07:58:26.500Z,100721.53
2022-08-12T08:05:13.177Z,100713.34
2022-08-12T08:12:18.881Z,100709.94
2022-08-12T08:19:05.133Z,100704.25
2022-08-12T08:25:52.354Z,100713.28
2022-08-12T08:32:41.092Z,100715.47
2022-08-12T08:39:27.978Z,100710.81
2022-08-12T08:46:14.556Z,100699.22
2022-08-12T08:53:03.078Z,100692.59
2022-08-12T08:59:51.777Z,100696.28
2022-08-12T09:06:39.622Z,100637.50
2022-08-12T09:14:10.493Z,100681.44
2022-08-12T09:28:03.998Z,100675.84
2022-08-12T09:34:55.290Z,100586.50
2022-08-12T09:42:34.885Z,100649.25
2022-08-12T09:48:56.725Z,100660.28
2022-08-12T09:56:06.219Z,100641.66
2022-08-12T10:03:06.150Z,100653.06
2022-08-12T10:09:58.379Z,100633.06
2022-08-12T10:16:49.233Z,100619.66
2022-08-12T10:23:40.589Z,100622.72
2022-08-12T10:30:39.492Z,100613.53
2022-08-12T10:38:33.758Z,100595.16
2022-08-12T10:44:36.562Z,100582.84
2022-08-12T10:51:51.388Z,100589.09
2022-08-12T10:58:31.772Z,100572.38
2022-08-12T11:07:06.192Z,100571.69
2022-08-12T11:12:56.584Z,100564.00
2022-08-12T11:19:35.776Z,100534.88
2022-08-12T11:26:23.211Z,100561.22
2022-08-12T11:33:24.360Z,100548.00
2022-08-12T11:40:20.440Z,100538.97
2022-08-12T11:47:09.578Z,100539.44
2022-08-12T11:53:56.916Z,100531.28
2022-08-12T12:08:37.394Z,100493.53
2022-08-12T12:15:03.128Z,100518.38
2022-08-12T12:21:55.281Z,100494.16
2022-08-12T12:28:54.423Z,100499.63
2022-08-12T12:36:18.977Z,100486.41
2022-08-12T12:42:57.760Z,100465.84
2022-08-12T12:49:47.476Z,100477.00
2022-08-12T12:56:42.979Z,100451.25
2022-08-12T13:03:49.480Z,100388.94
2022-08-12T13:10:36.564Z,100457.81
2022-08-12T13:17:22.632Z,100455.41
2022-08-12T13:24:12.101Z,100437.06
2022-08-12T13:30:59.451Z,100444.28
2022-08-12T13:37:55.236Z,100438.94
2022-08-12T13:44:44.055Z,100393.72
2022-08-12T13:51:41.256Z,100430.53
2022-08-12T13:58:27.147Z,100437.81
2022-08-12T14:05:37.442Z,100436.66
2022-08-12T14:12:24.257Z,100417.41
2022-08-12T14:19:10.474Z,100427.94
2022-08-12T14:26:05.814Z,100418.75
2022-08-12T14:32:57.720Z,100418.63
2022-08-12T14:39:50.614Z,100423.69
2022-08-12T14:46:39.152Z,100400.56
2022-08-12T15:00:52.430Z,100406.94
2022-08-12T15:07:49.438Z,100401.72
2022-08-12T15:14:38.473Z,100399.44
2022-08-12T15:21:24.272Z,100365.09
2022-08-12T15:28:21.565Z,100312.06
2022-08-12T15:35:12.010Z,100393.22
2022-08-12T15:42:01.923Z,100395.47
2022-08-12T15:48:50.359Z,100386.34
2022-08-12T15:55:36.783Z,100393.59
2022-08-12T16:02:31.534Z,100387.78
2022-08-12T16:09:56.551Z,100366.78
2022-08-12T16:16:30.389Z,100380.03
2022-08-12T16:23:35.812Z,100373.59
2022-08-12T16:30:32.856Z,100359.25
2022-08-12T16:37:19.040Z,100385.91
2022-08-12T16:44:08.305Z,100370.16
2022-08-12T16:50:57.066Z,100368.66
2022-08-12T16:57:45.530Z,100332.66
2022-08-12T17:04:31.972Z,100368.53
2022-08-12T17:11:20.432Z,100352.38
2022-08-12T17:18:42.261Z,100349.53
2022-08-12T17:25:15.874Z,100349.28
2022-08-12T17:32:07.363Z,100341.41
2022-08-12T17:38:54.623Z,100356.28
2022-08-12T17:45:47.369Z,100348.41
2022-08-12T17:52:40.312Z,100367.38
2022-08-12T17:59:48.295Z,100377.44
2022-08-12T18:06:31.636Z,100367.53
2022-08-12T18:13:41.106Z,100371.53
2022-08-12T18:20:30.326Z,100382.44
2022-08-12T18:27:30.805Z,100378.09
2022-08-12T18:34:32.565Z,100386.06
2022-08-12T18:41:34.110Z,100387.41
2022-08-12T18:48:21.048Z,100398.56
2022-08-12T18:55:14.072Z,100388.78
2022-08-12T19:02:22.048Z,100396.72
2022-08-12T19:09:14.735Z,100403.22
2022-08-12T19:16:10.532Z,100406.63
2022-08-12T19:22:59.903Z,100416.22
2022-08-12T19:30:06.804Z,100427.47
2022-08-12T19:36:57.458Z,100405.78
2022-08-12T19:44:00.621Z,100415.69
2022-08-12T19:50:52.646Z,100418.88
2022-08-12T19:57:42.385Z,100419.97
2022-08-12T20:04:28.229Z,100132.47
2022-08-12T20:12:13.790Z,100434.00
2022-08-12T20:18:44.553Z,100435.03
2022-08-12T20:25:52.863Z,100437.47
2022-08-12T20:32:47.913Z,100437.53
2022-08-12T20:39:56.553Z,100435.25
2022-08-12T20:46:43.087Z,100440.84
2022-08-12T20:53:54.067Z,100371.19
2022-08-12T21:00:36.952Z,100438.50
2022-08-12T21:07:24.226Z,100447.47
2022-08-12T21:14:10.550Z,100449.50
2022-08-12T21:20:59.195Z,100429.97
2022-08-12T21:27:57.878Z,100438.28
2022-08-12T21:34:45.697Z,100376.59
2022-08-12T21:41:37.952Z,100447.44
2022-08-12T21:48:24.436Z,100450.00
2022-08-12T21:55:18.703Z,100452.53
2022-08-12T22:02:30.929Z,100461.44
2022-08-12T22:09:17.733Z,100467.91
2022-08-12T22:16:03.539Z,100471.63
2022-08-12T22:22:56.065Z,100461.72
2022-08-12T22:29:55.098Z,100476.00
2022-08-12T22:36:40.596Z,100478.72
2022-08-12T22:43:58.539Z,100472.09
2022-08-12T22:50:46.666Z,100463.97
2022-08-12T22:57:53.748Z,100472.28
2022-08-12T23:04:43.020Z,100466.81
2022-08-12T23:11:33.705Z,100467.09
2022-08-12T23:18:33.410Z,100469.44
2022-08-12T23:25:22.207Z,100464.72
2022-08-12T23:32:36.425Z,100475.69
2022-08-12T23:40:13.221Z,100463.19
2022-08-12T23:46:31.594Z,100464.91
2022-08-12T23:53:22.840Z,100474.19
